Time,TemperatureF,DewpointF,PressureIn,WindDirection,WindDirectionDegrees,WindSpeedMPH,WindSpeedGustMPH,Humidity,HourlyPrecipIn,Conditions,Clouds,dailyrainin,SoftwareType,DateUTC
2013-05-28 00:00:00,73.3,64.9,29.95,South,184,0.0,3.0,75,0.00,,BKN055,0.00,VWS V14.00,2013-05-28 04:00:00,
2013-05-28 00:01:00,73.3,64.9,29.95,South,184,0.0,3.0,75,0.00,,BKN055,0.00,VWS V14.00,2013-05-28 04:01:00,
2013-05-28 00:10:00,72.4,64.4,29.93,South,184,0.0,0.0,76,0.00,,BKN055,0.00,VWS V14.00,2013-05-28 04:10:00,
2013-05-28 00:11:00,72.4,64.4,29.93,South,184,0.0,0.0,76,0.00,,BKN055,0.00,VWS V14.00,2013-05-28 04:11:00,
2013-05-28 00:20:00,71.2,64.0,29.93,South,184,0.0,0.0,78,0.00,,BKN055,0.00,VWS V14.00,2013-05-28 04:20:00,
2013-05-28 00:21:00,71.2,64.0,29.93,South,184,0.0,0.0,78,0.00,,BKN055,0.00,VWS V14.00,2013-05-28 04:21:00,
2013-05-28 00:30:00,70.4,63.2,29.93,South,184,0.0,0.0,78,0.00,,BKN055,0.00,VWS V14.00,2013-05-28 04:30:00,
2013-05-28 00:31:00,70.4,63.2,29.93,South,184,0.0,0.0,78,0.00,,BKN055,0.00,VWS V14.00,2013-05-28 04:31:00,
2013-05-28 00:40:00,69.6,63.5,29.93,South,188,0.0,1.0,81,0.00,,BKN055,0.00,VWS V14.00,2013-05-28 04:40:00,
2013-05-28 00:41:00,69.6,63.5,29.93,South,188,0.0,1.0,81,0.00,,BKN055,0.00,VWS V14.00,2013-05-28 04:41:00,
2013-05-28 00:50:00,69.3,62.5,29.94,SSW,199,0.0,1.0,79,0.00,,BKN055,0.00,VWS V14.00,2013-05-28 04:50:00,
2013-05-28 00:51:00,69.3,62.5,29.94,SSW,199,0.0,1.0,79,0.00,,BKN055,0.00,VWS V14.00,2013-05-28 04:51:00,
2013-05-28 01:00:00,69.9,62.7,29.94,WSW,246,0.0,4.0,78,0.00,,BKN055,0.00,VWS V14.00,2013-05-28 05:00:00,
2013-05-28 01:01:00,69.9,62.7,29.94,WSW,246,0.0,4.0,78,0.00,,BKN055,0.00,VWS V14.00,2013-05-28 05:01:00,
2013-05-28 01:10:00,70.1,62.6,29.93,WSW,245,0.0,0.0,77,0.00,,BKN055,0.00,VWS V14.00,2013-05-28 05:10:00,
2013-05-28 01:11:00,70.1,62.6,29.93,WSW,245,0.0,0.0,77,0.00,,BKN055,0.00,VWS V14.00,2013-05-28 05:11:00,
2013-05-28 01:20:00,70.1,62.9,29.93,WSW,245,0.0,1.0,78,0.00,,BKN055,0.00,VWS V14.00,2013-05-28 05:20:00,
2013-05-28 01:21:00,70.1,62.9,29.93,WSW,245,0.0,1.0,78,0.00,,BKN055,0.00,VWS V14.00,2013-05-28 05:21:00,
2013-05-28 01:30:00,69.8,62.6,29.93,WSW,245,0.0,0.0,78,0.00,,BKN055,0.00,VWS V14.00,2013-05-28 05:30:00,
2013-05-28 01:31:00,69.8,62.6,29.93,WSW,245,0.0,0.0,78,0.00,,BKN055,0.00,VWS V14.00,2013-05-28 05:31:00,
2013-05-28 01:40:00,69.6,62.4,29.93,West,267,0.0,2.0,78,0.00,,BKN055,0.00,VWS V14.00,2013-05-28 05:40:00,
2013-05-28 01:41:00,69.6,62.4,29.93,West,267,0.0,2.0,78,0.00,,BKN055,0.00,VWS V14.00,2013-05-28 05:41:00,
2013-05-28 01:50:00,69.7,63.3,29.93,West,267,0.0,1.0,80,0.00,,BKN055,0.00,VWS V14.00,2013-05-28 05:50:00,
2013-05-28 01:51:00,69.7,63.3,29.93,West,267,0.0,1.0,80,0.00,,BKN055,0.00,VWS V14.00,2013-05-28 05:51:00,
2013-05-28 02:00:00,69.5,63.8,29.93,West,264,0.0,3.0,82,0.00,,BKN055,0.00,VWS V14.00,2013-05-28 06:00:00,
2013-05-28 02:01:00,69.5,63.8,29.93,West,264,0.0,3.0,82,0.00,,BKN055,0.00,VWS V14.00,2013-05-28 06:01:00,
2013-05-28 02:10:00,69.4,63.0,29.93,SW,221,0.0,2.0,80,0.00,,BKN055,0.00,VWS V14.00,2013-05-28 06:10:00,
2013-05-28 02:11:00,69.4,63.0,29.93,SW,221,0.0,2.0,80,0.00,,BKN055,0.00,VWS V14.00,2013-05-28 06:11:00,
2013-05-28 02:20:00,69.4,63.0,29.93,SW,221,0.0,0.0,80,0.00,,BKN055,0.00,VWS V14.00,2013-05-28 06:20:00,
2013-05-28 02:21:00,69.4,63.0,29.93,SW,221,0.0,0.0,80,0.00,,BKN055,0.00,VWS V14.00,2013-05-28 06:21:00,
2013-05-28 02:30:00,69.4,63.3,29.93,SW,221,0.0,0.0,81,0.00,,BKN055,0.00,VWS V14.00,2013-05-28 06:30:00,
2013-05-28 02:31:00,69.4,63.3,29.93,SW,221,0.0,0.0,81,0.00,,BKN055,0.00,VWS V14.00,2013-05-28 06:31:00,
2013-05-28 02:40:00,69.2,64.2,29.93,SW,221,0.0,0.0,84,0.00,,BKN055,0.00,VWS V14.00,2013-05-28 06:40:00,
2013-05-28 02:41:00,69.2,64.2,29.93,SW,221,0.0,0.0,84,0.00,,BKN055,0.00,VWS V14.00,2013-05-28 06:41:00,
2013-05-28 02:50:00,69.3,63.2,29.93,SW,225,7.0,7.0,81,0.00,,BKN055,0.00,VWS V14.00,2013-05-28 06:50:00,
2013-05-28 02:51:00,69.3,63.2,29.93,SW,225,7.0,7.0,81,0.00,,BKN055,0.00,VWS V14.00,2013-05-28 06:51:00,
2013-05-28 03:00:00,70.5,63.0,29.94,West,268,0.0,7.0,77,0.00,,BKN055,0.00,VWS V14.00,2013-05-28 07:00:00,
2013-05-28 03:01:00,70.5,63.0,29.94,West,268,0.0,7.0,77,0.00,,BKN055,0.00,VWS V14.00,2013-05-28 07:01:00,
2013-05-28 03:10:00,71.3,63.0,29.95,WSW,244,0.0,5.0,75,0.00,,BKN055,0.00,VWS V14.00,2013-05-28 07:10:00,
2013-05-28 03:11:00,71.3,63.0,29.95,WSW,244,0.0,5.0,75,0.00,,BKN055,0.00,VWS V14.00,2013-05-28 07:11:00,
2013-05-28 03:20:00,71.5,63.2,29.95,SW,233,0.0,4.0,75,0.00,,BKN055,0.00,VWS V14.00,2013-05-28 07:20:00,
2013-05-28 03:21:00,71.5,63.2,29.95,SW,233,0.0,4.0,75,0.00,,BKN055,0.00,VWS V14.00,2013-05-28 07:21:00,
2013-05-28 03:30:00,71.5,63.9,29.95,WSW,240,0.0,4.0,77,0.00,,BKN055,0.00,VWS V14.00,2013-05-28 07:30:00,
2013-05-28 03:31:00,71.5,63.9,29.95,WSW,240,0.0,4.0,77,0.00,,BKN055,0.00,VWS V14.00,2013-05-28 07:31:00,
2013-05-28 03:40:00,71.1,64.3,29.95,WSW,257,0.0,4.0,79,0.00,,BKN055,0.00,VWS V14.00,2013-05-28 07:40:00,
2013-05-28 03:41:00,71.1,64.3,29.95,WSW,257,0.0,4.0,79,0.00,,BKN055,0.00,VWS V14.00,2013-05-28 07:41:00,
2013-05-28 03:50:00,70.7,64.6,29.95,West,259,0.0,0.0,81,0.00,,BKN055,0.00,VWS V14.00,2013-05-28 07:50:00,
2013-05-28 03:51:00,70.7,64.6,29.95,West,259,0.0,0.0,81,0.00,,BKN055,0.00,VWS V14.00,2013-05-28 07:51:00,
2013-05-28 04:00:00,70.2,64.8,29.95,West,259,0.0,1.0,83,0.00,,BKN055,0.00,VWS V14.00,2013-05-28 08:00:00,
2013-05-28 04:01:00,70.2,64.8,29.95,West,259,0.0,1.0,83,0.00,,BKN055,0.00,VWS V14.00,2013-05-28 08:01:00,
2013-05-28 04:10:00,69.6,64.2,29.95,WSW,258,0.0,1.0,83,0.00,,BKN055,0.00,VWS V14.00,2013-05-28 08:10:00,
2013-05-28 04:11:00,69.6,64.2,29.95,WSW,258,0.0,1.0,83,0.00,,BKN055,0.00,VWS V14.00,2013-05-28 08:11:00,
2013-05-28 04:20:00,69.3,64.3,29.95,West,259,0.0,1.0,84,0.00,,BKN055,0.00,VWS V14.00,2013-05-28 08:20:00,
2013-05-28 04:21:00,69.3,64.3,29.95,West,259,0.0,1.0,84,0.00,,BKN055,0.00,VWS V14.00,2013-05-28 08:21:00,
2013-05-28 04:30:00,68.9,63.9,29.95,West,259,0.0,0.0,84,0.00,,BKN055,0.00,VWS V14.00,2013-05-28 08:30:00,
2013-05-28 04:31:00,68.9,63.9,29.95,West,259,0.0,0.0,84,0.00,,BKN055,0.00,VWS V14.00,2013-05-28 08:31:00,
2013-05-28 04:40:00,68.5,63.8,29.95,West,259,0.0,0.0,85,0.00,,BKN055,0.00,VWS V14.00,2013-05-28 08:40:00,
2013-05-28 04:41:00,68.5,63.8,29.95,West,259,0.0,0.0,85,0.00,,BKN055,0.00,VWS V14.00,2013-05-28 08:41:00,
2013-05-28 04:50:00,68.3,64.3,29.95,West,259,0.0,0.0,87,0.00,,BKN055,0.00,VWS V14.00,2013-05-28 08:50:00,
2013-05-28 04:51:00,68.3,64.3,29.95,West,259,0.0,0.0,87,0.00,,BKN055,0.00,VWS V14.00,2013-05-28 08:51:00,
2013-05-28 05:00:00,68.1,64.1,29.94,West,259,0.0,0.0,87,0.00,,BKN055,0.00,VWS V14.00,2013-05-28 09:00:00,
2013-05-28 05:01:00,68.1,64.1,29.94,West,259,0.0,0.0,87,0.00,,BKN055,0.00,VWS V14.00,2013-05-28 09:01:00,
2013-05-28 05:10:00,67.9,63.9,29.95,West,259,0.0,0.0,87,0.00,,BKN055,0.00,VWS V14.00,2013-05-28 09:10:00,
2013-05-28 05:11:00,67.9,63.9,29.95,West,259,0.0,0.0,87,0.00,,BKN055,0.00,VWS V14.00,2013-05-28 09:11:00,
2013-05-28 05:20:00,68.3,63.3,29.96,West,259,0.0,3.0,84,0.00,,BKN055,0.00,VWS V14.00,2013-05-28 09:20:00,
2013-05-28 05:21:00,68.3,63.3,29.96,West,259,0.0,3.0,84,0.00,,BKN055,0.00,VWS V14.00,2013-05-28 09:21:00,
2013-05-28 05:30:00,68.6,63.9,29.96,West,260,0.0,0.0,85,0.00,,BKN055,0.00,VWS V14.00,2013-05-28 09:30:00,
2013-05-28 05:31:00,68.6,63.9,29.96,West,260,0.0,0.0,85,0.00,,BKN055,0.00,VWS V14.00,2013-05-28 09:31:00,
2013-05-28 05:40:00,68.7,64.3,29.97,West,260,0.0,0.0,86,0.00,,BKN055,0.00,VWS V14.00,2013-05-28 09:40:00,
2013-05-28 05:41:00,68.7,64.3,29.97,West,260,0.0,0.0,86,0.00,,BKN055,0.00,VWS V14.00,2013-05-28 09:41:00,
2013-05-28 05:50:00,68.6,64.2,29.97,West,260,0.0,2.0,86,0.00,,BKN055,0.00,VWS V14.00,2013-05-28 09:50:00,
2013-05-28 05:51:00,68.6,64.2,29.97,West,260,0.0,2.0,86,0.00,,BKN055,0.00,VWS V14.00,2013-05-28 09:51:00,
2013-05-28 06:00:00,68.6,64.6,29.97,West,261,0.0,0.0,87,0.00,,BKN055,0.00,VWS V14.00,2013-05-28 10:00:00,
2013-05-28 06:01:00,68.6,64.6,29.97,West,261,0.0,0.0,87,0.00,,BKN055,0.00,VWS V14.00,2013-05-28 10:01:00,
2013-05-28 06:10:00,68.5,64.8,29.97,West,260,0.0,0.0,88,0.00,,BKN055,0.00,VWS V14.00,2013-05-28 10:10:00,
2013-05-28 06:11:00,68.5,64.8,29.97,West,260,0.0,0.0,88,0.00,,BKN055,0.00,VWS V14.00,2013-05-28 10:11:00,
2013-05-28 06:20:00,68.2,64.8,29.97,West,260,0.0,0.0,89,0.00,,BKN055,0.00,VWS V14.00,2013-05-28 10:20:00,
2013-05-28 06:21:00,68.2,64.8,29.97,West,260,0.0,0.0,89,0.00,,BKN055,0.00,VWS V14.00,2013-05-28 10:21:00,
2013-05-28 06:30:00,68.0,64.6,29.97,WSW,241,0.0,0.0,89,0.00,,BKN055,0.00,VWS V14.00,2013-05-28 10:30:00,
2013-05-28 06:31:00,68.0,64.6,29.97,WSW,241,0.0,0.0,89,0.00,,BKN055,0.00,VWS V14.00,2013-05-28 10:31:00,
2013-05-28 06:40:00,67.6,64.2,29.97,WSW,241,0.0,0.0,89,0.00,,BKN055,0.00,VWS V14.00,2013-05-28 10:40:00,
2013-05-28 06:41:00,67.6,64.2,29.97,WSW,241,0.0,0.0,89,0.00,,BKN055,0.00,VWS V14.00,2013-05-28 10:41:00,
2013-05-28 06:50:00,67.3,64.0,29.97,WSW,248,0.0,2.0,89,0.00,,BKN055,0.00,VWS V14.00,2013-05-28 10:50:00,
2013-05-28 06:51:00,67.3,64.0,29.97,WSW,248,0.0,2.0,89,0.00,,BKN055,0.00,VWS V14.00,2013-05-28 10:51:00,
2013-05-28 07:00:00,67.0,64.0,29.97,WSW,248,0.0,0.0,90,0.00,,BKN055,0.00,VWS V14.00,2013-05-28 11:00:00,
2013-05-28 07:01:00,67.0,64.0,29.97,WSW,248,0.0,0.0,90,0.00,,BKN055,0.00,VWS V14.00,2013-05-28 11:01:00,
2013-05-28 07:10:00,67.0,63.7,29.98,SW,223,0.0,1.0,89,0.00,,BKN055,0.00,VWS V14.00,2013-05-28 11:10:00,
2013-05-28 07:11:00,67.0,63.7,29.98,SW,223,0.0,1.0,89,0.00,,BKN055,0.00,VWS V14.00,2013-05-28 11:11:00,
2013-05-28 07:20:00,67.3,63.6,29.98,SW,226,0.0,0.0,88,0.00,,BKN055,0.00,VWS V14.00,2013-05-28 11:20:00,
2013-05-28 07:21:00,67.3,63.6,29.98,SW,226,0.0,0.0,88,0.00,,BKN055,0.00,VWS V14.00,2013-05-28 11:21:00,
2013-05-28 07:30:00,67.8,63.8,29.98,SW,226,0.0,0.0,87,0.00,,BKN055,0.00,VWS V14.00,2013-05-28 11:30:00,
2013-05-28 07:31:00,67.8,63.8,29.98,SW,226,0.0,0.0,87,0.00,,BKN055,0.00,VWS V14.00,2013-05-28 11:31:00,
2013-05-28 07:40:00,68.2,64.5,29.98,SW,226,0.0,0.0,88,0.00,,BKN055,0.00,VWS V14.00,2013-05-28 11:40:00,
2013-05-28 07:41:00,68.2,64.5,29.98,SW,226,0.0,0.0,88,0.00,,BKN055,0.00,VWS V14.00,2013-05-28 11:41:00,
2013-05-28 07:50:00,68.6,64.6,29.98,SW,226,0.0,1.0,87,0.00,,BKN055,0.00,VWS V14.00,2013-05-28 11:50:00,
2013-05-28 07:51:00,68.6,64.6,29.98,SW,226,0.0,1.0,87,0.00,,BKN055,0.00,VWS V14.00,2013-05-28 11:51:00,
2013-05-28 08:00:00,68.8,65.1,29.98,SW,225,0.0,0.0,88,0.00,,BKN055,0.00,VWS V14.00,2013-05-28 12:00:00,
2013-05-28 08:01:00,68.8,65.1,29.98,SW,225,0.0,0.0,88,0.00,,BKN055,0.00,VWS V14.00,2013-05-28 12:01:00,
2013-05-28 08:10:00,69.4,65.7,29.98,SW,225,0.0,0.0,88,0.00,,BKN055,0.00,VWS V14.00,2013-05-28 12:10:00,
2013-05-28 08:11:00,69.4,65.7,29.98,SW,225,0.0,0.0,88,0.00,,BKN055,0.00,VWS V14.00,2013-05-28 12:11:00,
2013-05-28 08:20:00,70.6,67.2,29.98,SW,225,0.0,0.0,89,0.00,,BKN055,0.00,VWS V14.00,2013-05-28 12:20:00,
2013-05-28 08:21:00,70.6,67.2,29.98,SW,225,0.0,0.0,89,0.00,,BKN055,0.00,VWS V14.00,2013-05-28 12:21:00,
2013-05-28 08:30:00,71.7,66.6,29.98,SSW,206,0.0,3.0,84,0.00,,BKN055,0.00,VWS V14.00,2013-05-28 12:30:00,
2013-05-28 08:31:00,71.7,66.6,29.98,SSW,206,0.0,3.0,84,0.00,,BKN055,0.00,VWS V14.00,2013-05-28 12:31:00,
2013-05-28 08:40:00,73.0,68.2,29.98,SSW,206,0.0,0.0,85,0.00,,BKN055,0.00,VWS V14.00,2013-05-28 12:40:00,
2013-05-28 08:41:00,73.0,68.2,29.98,SSW,206,0.0,0.0,85,0.00,,BKN055,0.00,VWS V14.00,2013-05-28 12:41:00,
2013-05-28 08:50:00,73.8,66.5,29.98,SSW,211,0.0,1.0,78,0.00,,BKN055,0.00,VWS V14.00,2013-05-28 12:50:00,
2013-05-28 08:51:00,73.8,66.5,29.98,SSW,211,0.0,1.0,78,0.00,,BKN055,0.00,VWS V14.00,2013-05-28 12:51:00,
2013-05-28 09:00:00,74.4,67.8,29.98,WSW,250,1.0,1.0,80,0.00,,BKN055,0.00,VWS V14.00,2013-05-28 13:00:00,
2013-05-28 09:01:00,74.4,67.8,29.98,WSW,250,1.0,1.0,80,0.00,,BKN055,0.00,VWS V14.00,2013-05-28 13:01:00,
2013-05-28 09:10:00,75.3,69.1,29.99,SSW,202,0.0,3.0,81,0.00,,BKN055,0.00,VWS V14.00,2013-05-28 13:10:00,
2013-05-28 09:11:00,75.3,69.1,29.99,SSW,202,0.0,3.0,81,0.00,,BKN055,0.00,VWS V14.00,2013-05-28 13:11:00,
2013-05-28 09:20:00,75.9,67.8,29.99,West,266,0.0,6.0,76,0.00,,BKN055,0.00,VWS V14.00,2013-05-28 13:20:00,
2013-05-28 09:21:00,75.9,67.8,29.99,West,266,0.0,6.0,76,0.00,,BKN055,0.00,VWS V14.00,2013-05-28 13:21:00,
2013-05-28 09:30:00,75.8,68.5,29.99,WNW,290,0.0,4.0,78,0.00,,BKN055,0.00,VWS V14.00,2013-05-28 13:30:00,
2013-05-28 09:31:00,75.8,68.5,29.99,WNW,290,0.0,4.0,78,0.00,,BKN055,0.00,VWS V14.00,2013-05-28 13:31:00,
2013-05-28 09:40:00,76.2,68.5,29.99,WSW,255,0.0,6.0,77,0.00,,BKN055,0.00,VWS V14.00,2013-05-28 13:40:00,
2013-05-28 09:41:00,76.2,68.5,29.99,WSW,255,0.0,6.0,77,0.00,,BKN055,0.00,VWS V14.00,2013-05-28 13:41:00,
2013-05-28 09:50:00,77.2,67.9,29.99,WSW,238,3.0,5.0,73,0.00,,BKN055,0.00,VWS V14.00,2013-05-28 13:50:00,
2013-05-28 09:51:00,77.2,67.9,29.99,WSW,238,3.0,5.0,73,0.00,,BKN055,0.00,VWS V14.00,2013-05-28 13:51:00,
2013-05-28 10:00:00,77.7,68.0,29.99,NW,317,2.0,10.0,72,0.00,,BKN055,0.00,VWS V14.00,2013-05-28 14:00:00,
2013-05-28 10:01:00,77.7,68.0,29.99,NW,317,2.0,10.0,72,0.00,,BKN055,0.00,VWS V14.00,2013-05-28 14:01:00,
2013-05-28 10:10:00,77.9,68.2,29.99,WSW,240,0.0,6.0,72,0.00,,BKN055,0.00,VWS V14.00,2013-05-28 14:10:00,
2013-05-28 10:11:00,77.9,68.2,29.99,WSW,240,0.0,6.0,72,0.00,,BKN055,0.00,VWS V14.00,2013-05-28 14:11:00,
2013-05-28 10:20:00,78.1,69.1,29.99,SW,222,0.0,6.0,74,0.00,,BKN055,0.00,VWS V14.00,2013-05-28 14:20:00,
2013-05-28 10:21:00,78.1,69.1,29.99,SW,222,0.0,6.0,74,0.00,,BKN055,0.00,VWS V14.00,2013-05-28 14:21:00,
2013-05-28 10:30:00,78.7,68.5,29.98,SE,138,0.0,9.0,71,0.00,,BKN055,0.00,VWS V14.00,2013-05-28 14:30:00,
2013-05-28 10:31:00,78.7,68.5,29.98,SE,138,0.0,9.0,71,0.00,,BKN055,0.00,VWS V14.00,2013-05-28 14:31:00,
2013-05-28 10:40:00,78.8,69.8,29.98,WSW,251,0.0,11.0,74,0.00,,BKN055,0.00,VWS V14.00,2013-05-28 14:40:00,
2013-05-28 10:41:00,78.8,69.8,29.98,WSW,251,0.0,11.0,74,0.00,,BKN055,0.00,VWS V14.00,2013-05-28 14:41:00,
2013-05-28 10:50:00,79.4,70.4,29.98,WNW,302,1.0,12.0,74,0.00,,BKN055,0.00,VWS V14.00,2013-05-28 14:50:00,
2013-05-28 10:51:00,79.4,70.4,29.98,WNW,302,1.0,12.0,74,0.00,,BKN055,0.00,VWS V14.00,2013-05-28 14:51:00,
2013-05-28 11:00:00,79.6,70.2,29.98,West,263,3.0,9.0,73,0.00,,BKN055,0.00,VWS V14.00,2013-05-28 15:00:00,
2013-05-28 11:01:00,79.6,70.2,29.98,West,263,3.0,9.0,73,0.00,,BKN055,0.00,VWS V14.00,2013-05-28 15:01:00,
2013-05-28 11:10:00,79.9,70.1,29.98,South,184,0.0,10.0,72,0.00,,BKN055,0.00,VWS V14.00,2013-05-28 15:10:00,
2013-05-28 11:11:00,79.9,70.1,29.98,South,184,0.0,10.0,72,0.00,,BKN055,0.00,VWS V14.00,2013-05-28 15:11:00,
2013-05-28 11:20:00,80.3,71.3,29.98,SW,218,0.0,6.0,74,0.00,,BKN055,0.00,VWS V14.00,2013-05-28 15:20:00,
2013-05-28 11:21:00,80.3,71.3,29.98,SW,218,0.0,6.0,74,0.00,,BKN055,0.00,VWS V14.00,2013-05-28 15:21:00,
2013-05-28 11:30:00,80.2,69.1,29.98,SW,214,2.0,11.0,69,0.00,,BKN055,0.00,VWS V14.00,2013-05-28 15:30:00,
2013-05-28 11:31:00,80.2,69.1,29.98,SW,214,2.0,11.0,69,0.00,,BKN055,0.00,VWS V14.00,2013-05-28 15:31:00,
2013-05-28 11:40:00,80.3,70.5,29.98,SW,222,11.0,12.0,72,0.00,,BKN055,0.00,VWS V14.00,2013-05-28 15:40:00,
2013-05-28 11:41:00,80.3,70.5,29.98,SW,222,11.0,12.0,72,0.00,,BKN055,0.00,VWS V14.00,2013-05-28 15:41:00,
2013-05-28 11:50:00,80.2,69.9,29.97,SW,216,7.0,13.0,71,0.00,,BKN055,0.00,VWS V14.00,2013-05-28 15:50:00,
2013-05-28 11:51:00,80.2,69.9,29.97,SW,216,7.0,13.0,71,0.00,,BKN055,0.00,VWS V14.00,2013-05-28 15:51:00,
2013-05-28 12:00:00,80.2,69.9,29.97,WSW,246,4.0,8.0,71,0.00,,BKN055,0.00,VWS V14.00,2013-05-28 16:00:00,
2013-05-28 12:01:00,80.2,69.9,29.97,WSW,246,4.0,8.0,71,0.00,,BKN055,0.00,VWS V14.00,2013-05-28 16:01:00,
2013-05-28 12:10:00,80.3,70.5,29.97,West,275,2.0,10.0,72,0.00,,BKN055,0.00,VWS V14.00,2013-05-28 16:10:00,
2013-05-28 12:11:00,80.3,70.5,29.97,West,275,2.0,10.0,72,0.00,,BKN055,0.00,VWS V14.00,2013-05-28 16:11:00,
2013-05-28 12:20:00,80.6,70.8,29.98,WNW,294,0.0,16.0,72,0.00,,BKN055,0.00,VWS V14.00,2013-05-28 16:20:00,
2013-05-28 12:21:00,80.6,70.8,29.98,WNW,294,0.0,16.0,72,0.00,,BKN055,0.00,VWS V14.00,2013-05-28 16:21:00,
2013-05-28 12:30:00,81.2,71.3,29.98,WSW,249,0.0,8.0,72,0.00,,BKN055,0.00,VWS V14.00,2013-05-28 16:30:00,
2013-05-28 12:31:00,81.2,71.3,29.98,WSW,249,0.0,8.0,72,0.00,,BKN055,0.00,VWS V14.00,2013-05-28 16:31:00,
2013-05-28 12:40:00,81.4,71.5,29.97,NNW,336,1.0,10.0,72,0.00,,BKN055,0.00,VWS V14.00,2013-05-28 16:40:00,
2013-05-28 12:41:00,81.4,71.5,29.97,NNW,336,1.0,10.0,72,0.00,,BKN055,0.00,VWS V14.00,2013-05-28 16:41:00,
2013-05-28 12:50:00,81.8,71.5,29.97,WNW,286,11.0,13.0,71,0.00,,BKN055,0.00,VWS V14.00,2013-05-28 16:50:00,
2013-05-28 12:51:00,81.8,71.5,29.97,WNW,286,11.0,13.0,71,0.00,,BKN055,0.00,VWS V14.00,2013-05-28 16:51:00,
2013-05-28 13:00:00,81.6,70.9,29.96,SSW,207,4.0,11.0,70,0.00,,BKN055,0.00,VWS V14.00,2013-05-28 17:00:00,
2013-05-28 13:01:00,81.6,70.9,29.96,SSW,207,4.0,11.0,70,0.00,,BKN055,0.00,VWS V14.00,2013-05-28 17:01:00,
2013-05-28 13:10:00,81.5,72.4,29.96,SW,218,0.0,14.0,74,0.00,,BKN055,0.00,VWS V14.00,2013-05-28 17:10:00,
2013-05-28 13:11:00,81.5,72.4,29.96,SW,218,0.0,14.0,74,0.00,,BKN055,0.00,VWS V14.00,2013-05-28 17:11:00,
2013-05-28 13:20:00,82.1,70.1,29.96,SSW,208,2.0,11.0,67,0.00,,BKN055,0.00,VWS V14.00,2013-05-28 17:20:00,
2013-05-28 13:21:00,82.1,70.1,29.96,SSW,208,2.0,11.0,67,0.00,,BKN055,0.00,VWS V14.00,2013-05-28 17:21:00,
2013-05-28 13:30:00,81.9,69.0,29.95,SW,223,0.0,12.0,65,0.00,,BKN055,0.00,VWS V14.00,2013-05-28 17:30:00,
2013-05-28 13:31:00,81.9,69.0,29.95,SW,223,0.0,12.0,65,0.00,,BKN055,0.00,VWS V14.00,2013-05-28 17:31:00,
2013-05-28 13:40:00,82.1,67.3,29.95,SSW,207,0.0,10.0,61,0.00,,BKN055,0.00,VWS V14.00,2013-05-28 17:40:00,
2013-05-28 13:41:00,82.1,67.3,29.95,SSW,207,0.0,10.0,61,0.00,,BKN055,0.00,VWS V14.00,2013-05-28 17:41:00,
2013-05-28 13:50:00,81.6,66.4,29.95,WSW,252,0.0,15.0,60,0.00,,BKN055,0.00,VWS V14.00,2013-05-28 17:50:00,
2013-05-28 13:51:00,81.6,66.4,29.95,WSW,252,0.0,15.0,60,0.00,,BKN055,0.00,VWS V14.00,2013-05-28 17:51:00,
2013-05-28 14:00:00,81.6,65.4,29.95,WSW,248,2.0,10.0,58,0.00,,BKN055,0.00,VWS V14.00,2013-05-28 18:00:00,
2013-05-28 14:01:00,81.6,65.4,29.95,WSW,248,2.0,10.0,58,0.00,,BKN055,0.00,VWS V14.00,2013-05-28 18:01:00,
2013-05-28 14:10:00,82.2,66.9,29.95,SSW,199,4.0,12.0,60,0.00,,BKN055,0.00,VWS V14.00,2013-05-28 18:10:00,
2013-05-28 14:11:00,82.2,66.9,29.95,SSW,199,4.0,12.0,60,0.00,,BKN055,0.00,VWS V14.00,2013-05-28 18:11:00,
2013-05-28 14:20:00,83.1,68.7,29.95,WNW,287,3.0,11.0,62,0.00,,BKN055,0.00,VWS V14.00,2013-05-28 18:20:00,
2013-05-28 14:21:00,83.1,68.7,29.95,WNW,287,3.0,11.0,62,0.00,,BKN055,0.00,VWS V14.00,2013-05-28 18:21:00,
2013-05-28 14:30:00,83.7,66.9,29.95,WSW,253,7.0,13.0,57,0.00,,BKN055,0.00,VWS V14.00,2013-05-28 18:30:00,
2013-05-28 14:31:00,83.7,66.9,29.95,WSW,253,7.0,13.0,57,0.00,,BKN055,0.00,VWS V14.00,2013-05-28 18:31:00,
2013-05-28 14:40:00,83.4,67.6,29.94,West,265,2.0,12.0,59,0.00,,BKN055,0.00,VWS V14.00,2013-05-28 18:40:00,
2013-05-28 14:41:00,83.4,67.6,29.94,West,265,2.0,12.0,59,0.00,,BKN055,0.00,VWS V14.00,2013-05-28 18:41:00,
2013-05-28 14:50:00,83.2,68.8,29.94,WNW,286,0.0,5.0,62,0.00,,BKN055,0.00,VWS V14.00,2013-05-28 18:50:00,
2013-05-28 14:51:00,83.2,68.8,29.94,WNW,286,0.0,5.0,62,0.00,,BKN055,0.00,VWS V14.00,2013-05-28 18:51:00,
2013-05-28 15:01:00,83.5,67.7,29.94,West,265,0.0,8.0,59,0.00,,BKN055,0.00,VWS V14.00,2013-05-28 19:01:00,
2013-05-28 15:11:00,84.3,68.9,29.94,SSE,163,0.0,8.0,60,0.00,,BKN055,0.00,VWS V14.00,2013-05-28 19:11:00,
2013-05-28 15:20:00,84.5,70.1,29.93,South,171,0.0,11.0,62,0.00,,BKN055,0.00,VWS V14.00,2013-05-28 19:20:00,
2013-05-28 15:21:00,84.5,70.1,29.93,South,171,0.0,11.0,62,0.00,,BKN055,0.00,VWS V14.00,2013-05-28 19:21:00,
2013-05-28 15:30:00,84.1,69.2,29.93,SW,223,7.0,12.0,61,0.00,,BKN055,0.00,VWS V14.00,2013-05-28 19:30:00,
2013-05-28 15:31:00,84.1,69.2,29.93,SW,223,7.0,12.0,61,0.00,,BKN055,0.00,VWS V14.00,2013-05-28 19:31:00,
2013-05-28 15:40:00,84.2,67.8,29.93,SSW,206,0.0,11.0,58,0.00,,BKN055,0.00,VWS V14.00,2013-05-28 19:40:00,
2013-05-28 15:41:00,84.2,67.8,29.93,SSW,206,0.0,11.0,58,0.00,,BKN055,0.00,VWS V14.00,2013-05-28 19:41:00,
2013-05-28 15:50:00,84.3,67.9,29.92,West,281,1.0,11.0,58,0.00,,BKN055,0.00,VWS V14.00,2013-05-28 19:50:00,
2013-05-28 15:51:00,84.3,67.9,29.92,West,281,1.0,11.0,58,0.00,,BKN055,0.00,VWS V14.00,2013-05-28 19:51:00,
2013-05-28 16:00:00,84.3,67.9,29.92,West,261,0.0,10.0,58,0.00,,BKN055,0.00,VWS V14.00,2013-05-28 20:00:00,
2013-05-28 16:01:00,84.3,67.9,29.92,West,261,0.0,10.0,58,0.00,,BKN055,0.00,VWS V14.00,2013-05-28 20:01:00,
2013-05-28 16:10:00,84.5,69.1,29.92,SSW,205,0.0,5.0,60,0.00,,BKN055,0.00,VWS V14.00,2013-05-28 20:10:00,
2013-05-28 16:11:00,84.5,69.1,29.92,SSW,205,0.0,5.0,60,0.00,,BKN055,0.00,VWS V14.00,2013-05-28 20:11:00,
2013-05-28 16:20:00,85.4,69.0,29.91,SW,221,0.0,2.0,58,0.00,,BKN055,0.00,VWS V14.00,2013-05-28 20:20:00,
2013-05-28 16:21:00,85.4,69.0,29.91,SW,221,0.0,2.0,58,0.00,,BKN055,0.00,VWS V14.00,2013-05-28 20:21:00,
2013-05-28 16:30:00,86.0,72.9,29.91,South,175,0.0,1.0,65,0.00,,BKN055,0.00,VWS V14.00,2013-05-28 20:30:00,
2013-05-28 16:31:00,86.0,72.9,29.91,South,175,0.0,1.0,65,0.00,,BKN055,0.00,VWS V14.00,2013-05-28 20:31:00,
2013-05-28 16:40:00,85.2,67.2,29.90,SE,126,0.0,4.0,55,0.00,,BKN055,0.00,VWS V14.00,2013-05-28 20:40:00,
2013-05-28 16:41:00,85.2,67.2,29.90,SE,126,0.0,4.0,55,0.00,,BKN055,0.00,VWS V14.00,2013-05-28 20:41:00,
2013-05-28 16:50:00,83.9,68.1,29.90,WSW,246,0.0,6.0,59,0.00,,BKN055,0.00,VWS V14.00,2013-05-28 20:50:00,
2013-05-28 16:51:00,83.9,68.1,29.90,WSW,246,0.0,6.0,59,0.00,,BKN055,0.00,VWS V14.00,2013-05-28 20:51:00,
2013-05-28 17:00:00,83.4,67.6,29.90,SW,229,5.0,6.0,59,0.00,,BKN055,0.00,VWS V14.00,2013-05-28 21:00:00,
2013-05-28 17:01:00,83.4,67.6,29.90,SW,229,5.0,6.0,59,0.00,,BKN055,0.00,VWS V14.00,2013-05-28 21:01:00,
2013-05-28 17:10:00,83.2,66.4,29.89,WSW,257,0.0,12.0,57,0.00,,BKN055,0.00,VWS V14.00,2013-05-28 21:10:00,
2013-05-28 17:11:00,83.2,66.4,29.89,WSW,257,0.0,12.0,57,0.00,,BKN055,0.00,VWS V14.00,2013-05-28 21:11:00,
2013-05-28 17:20:00,83.0,66.2,29.90,WSW,238,0.0,11.0,57,0.00,,BKN055,0.00,VWS V14.00,2013-05-28 21:20:00,
2013-05-28 17:21:00,83.0,66.2,29.90,WSW,238,0.0,11.0,57,0.00,,BKN055,0.00,VWS V14.00,2013-05-28 21:21:00,
2013-05-28 17:30:00,82.9,67.6,29.90,SSW,209,0.0,10.0,60,0.00,,BKN055,0.00,VWS V14.00,2013-05-28 21:30:00,
2013-05-28 17:31:00,82.9,67.6,29.90,SSW,209,0.0,10.0,60,0.00,,BKN055,0.00,VWS V14.00,2013-05-28 21:31:00,
2013-05-28 17:40:00,83.4,68.6,29.89,West,262,0.0,10.0,61,0.00,,BKN055,0.00,VWS V14.00,2013-05-28 21:40:00,
2013-05-28 17:41:00,83.4,68.6,29.89,West,262,0.0,10.0,61,0.00,,BKN055,0.00,VWS V14.00,2013-05-28 21:41:00,
2013-05-28 17:50:00,83.7,66.3,29.89,WSW,246,1.0,15.0,56,0.00,,BKN055,0.00,VWS V14.00,2013-05-28 21:50:00,
2013-05-28 17:51:00,83.7,66.3,29.89,WSW,246,1.0,15.0,56,0.00,,BKN055,0.00,VWS V14.00,2013-05-28 21:51:00,
2013-05-28 18:00:00,83.5,66.2,29.89,WSW,242,4.0,10.0,56,0.00,,BKN055,0.00,VWS V14.00,2013-05-28 22:00:00,
2013-05-28 18:01:00,83.5,66.2,29.89,WSW,242,4.0,10.0,56,0.00,,BKN055,0.00,VWS V14.00,2013-05-28 22:01:00,
2013-05-28 18:10:00,83.8,67.0,29.88,West,272,2.0,13.0,57,0.00,,BKN055,0.00,VWS V14.00,2013-05-28 22:10:00,
2013-05-28 18:11:00,83.8,67.0,29.88,West,272,2.0,13.0,57,0.00,,BKN055,0.00,VWS V14.00,2013-05-28 22:11:00,
2013-05-28 18:20:00,83.8,69.4,29.88,WNW,284,0.0,11.0,62,0.00,,BKN055,0.00,VWS V14.00,2013-05-28 22:20:00,
2013-05-28 18:21:00,83.8,69.4,29.88,WNW,284,0.0,11.0,62,0.00,,BKN055,0.00,VWS V14.00,2013-05-28 22:21:00,
2013-05-28 18:30:00,84.1,66.7,29.88,SW,232,5.0,6.0,56,0.00,,BKN055,0.00,VWS V14.00,2013-05-28 22:30:00,
2013-05-28 18:31:00,84.1,66.7,29.88,SW,232,5.0,6.0,56,0.00,,BKN055,0.00,VWS V14.00,2013-05-28 22:31:00,
2013-05-28 18:40:00,83.9,67.1,29.89,WNW,287,4.0,9.0,57,0.00,,BKN055,0.00,VWS V14.00,2013-05-28 22:40:00,
2013-05-28 18:41:00,83.9,67.1,29.89,WNW,287,4.0,9.0,57,0.00,,BKN055,0.00,VWS V14.00,2013-05-28 22:41:00,
2013-05-28 18:50:00,83.8,68.9,29.89,SE,130,0.0,7.0,61,0.00,,BKN055,0.00,VWS V14.00,2013-05-28 22:50:00,
2013-05-28 18:51:00,83.8,68.9,29.89,SE,130,0.0,7.0,61,0.00,,BKN055,0.00,VWS V14.00,2013-05-28 22:51:00,
2013-05-28 19:00:00,83.2,66.9,29.89,South,182,0.0,10.0,58,0.00,,BKN055,0.00,VWS V14.00,2013-05-28 23:00:00,
2013-05-28 19:01:00,83.2,66.9,29.89,South,182,0.0,10.0,58,0.00,,BKN055,0.00,VWS V14.00,2013-05-28 23:01:00,
2013-05-28 19:10:00,82.3,66.1,29.89,WSW,237,0.0,5.0,58,0.00,,BKN055,0.00,VWS V14.00,2013-05-28 23:10:00,
2013-05-28 19:11:00,82.3,66.1,29.89,WSW,237,0.0,5.0,58,0.00,,BKN055,0.00,VWS V14.00,2013-05-28 23:11:00,
2013-05-28 19:20:00,81.6,66.4,29.89,West,268,0.0,6.0,60,0.00,,BKN055,0.00,VWS V14.00,2013-05-28 23:20:00,
2013-05-28 19:21:00,81.6,66.4,29.89,West,268,0.0,6.0,60,0.00,,BKN055,0.00,VWS V14.00,2013-05-28 23:21:00,
2013-05-28 19:30:00,81.0,65.8,29.90,WSW,252,0.0,11.0,60,0.00,,BKN055,0.00,VWS V14.00,2013-05-28 23:30:00,
2013-05-28 19:31:00,81.0,65.8,29.90,WSW,252,0.0,11.0,60,0.00,,BKN055,0.00,VWS V14.00,2013-05-28 23:31:00,
2013-05-28 19:40:00,80.6,65.4,29.90,NW,317,0.0,4.0,60,0.00,,BKN055,0.00,VWS V14.00,2013-05-28 23:40:00,
2013-05-28 19:41:00,80.6,65.4,29.90,NW,317,0.0,4.0,60,0.00,,BKN055,0.00,VWS V14.00,2013-05-28 23:41:00,
2013-05-28 19:50:00,80.2,66.0,29.90,East,101,0.0,5.0,62,0.00,,BKN055,0.00,VWS V14.00,2013-05-28 23:50:00,
2013-05-28 19:51:00,80.2,66.0,29.90,East,101,0.0,5.0,62,0.00,,BKN055,0.00,VWS V14.00,2013-05-28 23:51:00,
2013-05-28 20:00:00,79.4,66.6,29.90,ESE,119,0.0,0.0,65,0.00,,BKN055,0.00,VWS V14.00,2013-05-29 00:00:00,
2013-05-28 20:01:00,79.4,66.6,29.90,ESE,119,0.0,0.0,65,0.00,,BKN055,0.00,VWS V14.00,2013-05-29 00:01:00,
2013-05-28 20:10:00,78.9,67.0,29.90,SSE,163,0.0,3.0,67,0.00,,BKN055,0.00,VWS V14.00,2013-05-29 00:10:00,
2013-05-28 20:11:00,78.9,67.0,29.90,SSE,163,0.0,3.0,67,0.00,,BKN055,0.00,VWS V14.00,2013-05-29 00:11:00,
2013-05-28 20:20:00,78.7,67.3,29.90,SSE,163,0.0,0.0,68,0.00,,BKN055,0.00,VWS V14.00,2013-05-29 00:20:00,
2013-05-28 20:21:00,78.7,67.3,29.90,SSE,163,0.0,0.0,68,0.00,,BKN055,0.00,VWS V14.00,2013-05-29 00:21:00,
2013-05-28 20:30:00,78.3,67.3,29.91,WNW,284,0.0,0.0,69,0.00,,BKN055,0.00,VWS V14.00,2013-05-29 00:30:00,
2013-05-28 20:40:00,77.6,67.1,29.91,WNW,283,0.0,1.0,70,0.00,,BKN055,0.00,VWS V14.00,2013-05-29 00:40:00,
2013-05-28 20:50:00,76.9,66.4,29.92,WNW,284,0.0,0.0,70,0.00,,BKN055,0.00,VWS V14.00,2013-05-29 00:50:00,
2013-05-28 21:00:00,75.6,66.3,29.92,WNW,283,0.0,0.0,73,0.00,,BKN055,0.00,VWS V14.00,2013-05-29 01:00:00,
2013-05-28 21:10:00,74.6,66.5,29.92,WNW,283,0.0,0.0,76,0.00,,BKN055,0.00,VWS V14.00,2013-05-29 01:10:00,
2013-05-28 21:20:00,73.5,66.2,29.92,WNW,283,0.0,0.0,78,0.00,,BKN055,0.00,VWS V14.00,2013-05-29 01:20:00,
2013-05-28 21:30:00,72.2,65.7,29.92,WNW,284,0.0,0.0,80,0.00,,BKN055,0.00,VWS V14.00,2013-05-29 01:30:00,
2013-05-28 21:31:00,72.2,65.7,29.92,WNW,284,0.0,0.0,80,0.00,,BKN055,0.00,VWS V14.00,2013-05-29 01:31:00,
2013-05-28 21:40:00,71.3,65.5,29.92,WNW,284,0.0,0.0,82,0.00,,BKN055,0.00,VWS V14.00,2013-05-29 01:40:00,
2013-05-28 21:41:00,71.3,65.5,29.92,WNW,284,0.0,0.0,82,0.00,,BKN055,0.00,VWS V14.00,2013-05-29 01:41:00,
2013-05-28 21:50:00,70.2,65.1,29.92,WNW,284,0.0,0.0,84,0.00,,BKN055,0.00,VWS V14.00,2013-05-29 01:50:00,
2013-05-28 21:51:00,70.2,65.1,29.92,WNW,284,0.0,0.0,84,0.00,,BKN055,0.00,VWS V14.00,2013-05-29 01:51:00,
2013-05-28 22:00:00,69.3,64.6,29.91,WNW,284,0.0,0.0,85,0.00,,BKN055,0.00,VWS V14.00,2013-05-29 02:00:00,
2013-05-28 22:01:00,69.3,64.6,29.91,WNW,284,0.0,0.0,85,0.00,,BKN055,0.00,VWS V14.00,2013-05-29 02:01:00,
2013-05-28 22:10:00,68.5,64.5,29.92,WNW,283,0.0,0.0,87,0.00,,BKN055,0.00,VWS V14.00,2013-05-29 02:10:00,
2013-05-28 22:11:00,68.5,64.5,29.92,WNW,283,0.0,0.0,87,0.00,,BKN055,0.00,VWS V14.00,2013-05-29 02:11:00,
2013-05-28 22:20:00,68.0,64.6,29.92,WNW,284,0.0,2.0,89,0.00,,BKN055,0.00,VWS V14.00,2013-05-29 02:20:00,
2013-05-28 22:21:00,68.0,64.6,29.92,WNW,284,0.0,2.0,89,0.00,,BKN055,0.00,VWS V14.00,2013-05-29 02:21:00,
2013-05-28 22:30:00,67.4,64.4,29.92,WNW,284,0.0,0.0,90,0.00,,BKN055,0.00,VWS V14.00,2013-05-29 02:30:00,
2013-05-28 22:31:00,67.4,64.4,29.92,WNW,284,0.0,0.0,90,0.00,,BKN055,0.00,VWS V14.00,2013-05-29 02:31:00,
2013-05-28 22:40:00,66.9,64.5,29.93,WNW,284,0.0,0.0,92,0.00,,BKN055,0.00,VWS V14.00,2013-05-29 02:40:00,
2013-05-28 22:41:00,66.9,64.5,29.93,WNW,284,0.0,0.0,92,0.00,,BKN055,0.00,VWS V14.00,2013-05-29 02:41:00,
2013-05-28 22:50:00,66.5,64.1,29.93,WNW,284,0.0,0.0,92,0.00,,BKN055,0.00,VWS V14.00,2013-05-29 02:50:00,
2013-05-28 22:51:00,66.5,64.1,29.93,WNW,284,0.0,0.0,92,0.00,,BKN055,0.00,VWS V14.00,2013-05-29 02:51:00,
2013-05-28 23:00:00,66.2,63.8,29.94,WNW,284,0.0,0.0,92,0.00,,BKN055,0.00,VWS V14.00,2013-05-29 03:00:00,
2013-05-28 23:01:00,66.2,63.8,29.94,WNW,284,0.0,0.0,92,0.00,,BKN055,0.00,VWS V14.00,2013-05-29 03:01:00,
2013-05-28 23:10:00,65.9,63.8,29.94,WNW,284,0.0,0.0,93,0.00,,BKN055,0.00,VWS V14.00,2013-05-29 03:10:00,
2013-05-28 23:11:00,65.9,63.8,29.94,WNW,284,0.0,0.0,93,0.00,,BKN055,0.00,VWS V14.00,2013-05-29 03:11:00,
2013-05-28 23:20:00,65.5,63.4,29.94,WNW,283,0.0,0.0,93,0.00,,BKN055,0.00,VWS V14.00,2013-05-29 03:20:00,
2013-05-28 23:21:00,65.5,63.4,29.94,WNW,283,0.0,0.0,93,0.00,,BKN055,0.00,VWS V14.00,2013-05-29 03:21:00,
2013-05-28 23:30:00,65.2,63.1,29.93,WNW,283,0.0,0.0,93,0.00,,BKN055,0.00,VWS V14.00,2013-05-29 03:30:00,
2013-05-28 23:31:00,65.2,63.1,29.93,WNW,283,0.0,0.0,93,0.00,,BKN055,0.00,VWS V14.00,2013-05-29 03:31:00,
2013-05-28 23:40:00,65.0,63.2,29.93,WNW,284,0.0,0.0,94,0.00,,BKN055,0.00,VWS V14.00,2013-05-29 03:40:00,
2013-05-28 23:41:00,65.0,63.2,29.93,WNW,284,0.0,0.0,94,0.00,,BKN055,0.00,VWS V14.00,2013-05-29 03:41:00,
2013-05-28 23:50:00,64.7,62.9,29.94,WNW,284,0.0,0.0,94,0.00,,BKN055,0.00,VWS V14.00,2013-05-29 03:50:00,
2013-05-28 23:51:00,64.7,62.9,29.94,WNW,284,0.0,0.0,94,0.00,,BKN055,0.00,VWS V14.00,2013-05-29 03:51:00,